Crooked Creek Research Lab Weather observations

Data are for 10 minute period ending at time listed.
 Day   Time    Ave.   Ave.  Ave.  Vector   Max.   Stn.    Total    Solar   Ave.   Snow 
  of    of     Air    Rel.  Wind   Wind    Wind   Baro.  Precip.   Rad.    Soil   Depth
Year   Day     Temp.  Hum.  Speed  Dir.    Gust   Pres.                    Temp.       
2015   (PST)    F      %     mph   deg.    mph     mb.     in.     W/m2     F      in. 
---------------------------------------------------------------------------------------  
 180    0:00   55.8    56    3.5   188      8.5   708.5    0.00       0    999.0    -0.5
 180    0:10   55.6    57    2.6   184      5.4   708.5    0.00       0    999.0    -0.5
 180    0:20   55.3    58    2.1   195      4.1   708.6    0.00       0    999.0    -0.5
 180    0:30   54.8    59    1.5   165      2.8   708.5    0.00       0    999.0    -0.5
 180    0:40   54.2    60    1.6   159      2.8   708.5    0.00       0    999.0    -0.5
 180    0:50   53.7    62    2.6   158      3.9   708.4    0.00       0    999.0    -0.6
 180    1:00   52.4    64    3.1   182      4.8   708.3    0.00       0    999.0    -0.6
 180    1:10   51.9    65    3.1   166      4.7   708.3    0.00       0    999.0    -0.6
 180    1:20   51.9    62    2.3   196      5.5   708.4    0.00       0    999.0    -0.5
 180    1:30   51.7    63    2.0   183      4.0   708.4    0.00       0    999.0    -0.7
 180    1:40   50.7    63    1.8   173      4.5   708.4    0.00       0    999.0    -0.6
 180    1:50   49.4    66    2.1   221      5.4   708.3    0.00       0    999.0    -0.7
 180    2:00   50.8    62    2.5   212      6.8   708.2    0.00       0    999.0    -0.7
 180    2:10   51.2    61    2.4   216      6.4   708.0    0.00       0    999.0    -0.5
 180    2:20  999.0   999  999.0   999    999.0   999.0   999.00     999    999.0   999.0
 180    2:30  999.0   999  999.0   999    999.0   999.0   999.00     999    999.0   999.0
 180    2:40  999.0   999  999.0   999    999.0   999.0   999.00     999    999.0   999.0
 180    2:50  999.0   999  999.0   999    999.0   999.0   999.00     999    999.0   999.0
 180    3:00  999.0   999  999.0   999    999.0   999.0   999.00     999    999.0   999.0
 180    3:10  999.0   999  999.0   999    999.0   999.0   999.00     999    999.0   999.0
 180    3:20  999.0   999  999.0   999    999.0   999.0   999.00     999    999.0   999.0
 180    3:30  999.0   999  999.0   999    999.0   999.0   999.00     999    999.0   999.0
 180    3:40  999.0   999  999.0   999    999.0   999.0   999.00     999    999.0   999.0
 180    3:50  999.0   999  999.0   999    999.0   999.0   999.00     999    999.0   999.0
 180    4:00  999.0   999  999.0   999    999.0   999.0   999.00     999    999.0   999.0
 180    4:10  999.0   999  999.0   999    999.0   999.0   999.00     999    999.0   999.0
 180    4:20  999.0   999  999.0   999    999.0   999.0   999.00     999    999.0   999.0
 180    4:30  999.0   999  999.0   999    999.0   999.0   999.00     999    999.0   999.0
 180    4:40  999.0   999  999.0   999    999.0   999.0   999.00     999    999.0   999.0
 180    4:50  999.0   999  999.0   999    999.0   999.0   999.00     999    999.0   999.0
 180    5:00  999.0   999  999.0   999    999.0   999.0   999.00     999    999.0   999.0
 180    5:10  999.0   999  999.0   999    999.0   999.0   999.00     999    999.0   999.0
 180    5:20  999.0   999  999.0   999    999.0   999.0   999.00     999    999.0   999.0
 180    5:30  999.0   999  999.0   999    999.0   999.0   999.00     999    999.0   999.0
 180    5:40  999.0   999  999.0   999    999.0   999.0   999.00     999    999.0   999.0
 180    5:50  999.0   999  999.0   999    999.0   999.0   999.00     999    999.0   999.0
 180    6:00  999.0   999  999.0   999    999.0   999.0   999.00     999    999.0   999.0
 180    6:10  999.0   999  999.0   999    999.0   999.0   999.00     999    999.0   999.0
 180    6:20  999.0   999  999.0   999    999.0   999.0   999.00     999    999.0   999.0
 180    6:30  999.0   999  999.0   999    999.0   999.0   999.00     999    999.0   999.0
 180    6:40  999.0   999  999.0   999    999.0   999.0   999.00     999    999.0   999.0
 180    6:50  999.0   999  999.0   999    999.0   999.0   999.00     999    999.0   999.0
 180    7:00  999.0   999  999.0   999    999.0   999.0   999.00     999    999.0   999.0
 180    7:10  999.0   999  999.0   999    999.0   999.0   999.00     999    999.0   999.0
 180    7:20  999.0   999  999.0   999    999.0   999.0   999.00     999    999.0   999.0
 180    7:30   57.7    59    1.2    19      2.3   709.6    0.00     178    999.0     0.0
 180    7:40   58.1    57    0.9    74      2.9   709.6    0.00     187    999.0    -0.2
 180    7:50   58.3    56    2.2   128      6.0   709.6    0.00     261    999.0    -0.6
 180    8:00   58.9    53    2.6   124      5.0   709.6    0.00     350    999.0    -0.6
 180    8:10   61.5    47    2.4   117      9.5   709.6    0.00     575    999.0    -0.6
 180    8:20   61.1    45    4.4   128      9.9   709.7    0.00     389    999.0    -0.6
 180    8:30   61.5    45    3.6   122     10.4   709.7    0.00     612    999.0    -0.6
 180    8:40   62.7    45    4.5   132     10.8   709.7    0.00     707    999.0    -0.6
 180    8:50   62.7    44    5.6   132     11.8   709.7    0.00     710    999.0    -0.6
 180    9:00   63.0    43    5.5   131     15.1   709.8    0.00     735    999.0    -0.7
 180    9:10   63.3    42    4.7   134      9.9   709.8    0.00     778    999.0    -0.6
 180    9:20   63.8    40    4.7   127     11.0   709.7    0.00     790    999.0    -0.7
 180    9:30   64.3    40    4.9   136     12.0   709.8    0.00     841    999.0    -0.6
 180    9:40   64.8    40    4.5   135     12.3   709.8    0.00     796    999.0    -0.7
 180    9:50   64.4    40    5.0   129     13.3   709.9    0.00     744    999.0    -0.6
 180   10:00   64.4    40    5.2   136     12.6   709.8    0.00     888    999.0    -0.6
 180   10:10   65.4    39    4.9    73     12.2   709.9    0.00     923    999.0    -0.6
 180   10:20   66.0    37    5.2   184     11.0   709.8    0.00     936    999.0    -0.6
 180   10:30   66.8    36    4.8   181     15.6   709.9    0.00    1037    999.0    -0.5
 180   10:40   67.2    34    3.9   191     10.4   709.9    0.00     749    999.0    -0.6
 180   10:50   66.1    38    4.2   186     14.7   709.8    0.00     707    999.0    -0.6
 180   11:00   67.2    37    5.5   145     16.1   709.9    0.00     924    999.0    -0.6
 180   11:10   66.6    41    5.7   240     13.5   710.0    0.00     893    999.0    -0.7
 180   11:20   66.5    40    5.3   174     13.8   710.0    0.00     931    999.0    -0.5
 180   11:30   66.7    38    3.7   156      9.3   709.9    0.00     495    999.0    -0.6
 180   11:40   66.1    40    3.5   204      8.6   709.9    0.00     504    999.0    -0.6
 180   11:50   65.1    41    2.3   211      9.3   709.9    0.00     289    999.0    -0.6
 180   12:00   64.9    42    2.8   115      7.9   709.9    0.00     296    999.0    -0.6
 180   12:10   64.3    42    4.7   135     11.8   709.9    0.00     312    999.0    -0.6
 180   12:20   64.0    43    4.4   154     10.2   709.9    0.00     339    999.0    -0.6
 180   12:30   64.0    43    3.1   145      9.2   709.9    0.00     364    999.0    -0.5
 180   12:40   64.1    44    4.3   143     10.4   709.9    0.00     353    999.0    -0.7
 180   12:50   63.6    44    4.5   146     10.9   710.0    0.00     357    999.0    -0.5
 180   13:00   63.4    44    4.8   129      9.2   709.9    0.00     508    999.0    -0.5
 180   13:10   64.8    43    4.1   139      9.8   709.8    0.00     702    999.0    -0.5
 180   13:20   66.0    41    4.1   137     11.5   709.8    0.00     784    999.0    -0.5
 180   13:30   66.3    40    4.1   125     12.5   709.8    0.00     777    999.0    -0.6
 180   13:40   67.0    38    5.5   150     14.2   709.8    0.00     941    999.0    -0.7
 180   13:50   67.3    36    4.8   146     13.7   709.7    0.00     893    999.0    -0.6
 180   14:00   67.0    37    4.9   172     14.1   709.7    0.00     641    999.0    -0.7
 180   14:10   66.0    37    5.9   130     14.9   709.7    0.00     689    999.0    -0.5
 180   14:20   67.4    36    4.2   119     10.7   709.5    0.00     768    999.0    -0.7
 180   14:30   67.1    36    5.0   106     10.7   709.3    0.00     685    999.0    -0.6
 180   14:40   67.7    36    3.5   127     11.0   709.3    0.00     699    999.0    -0.6
 180   14:50   67.2    37    6.7   151     13.9   709.3    0.00     673    999.0    -0.6
 180   15:00   66.7    38    5.6   137     14.5   709.3    0.00     573    999.0    -0.5
 180   15:10   65.8    38    5.3   133     11.5   709.1    0.00     334    999.0    -0.6
 180   15:20   65.9    38    3.2   112      7.4   709.3    0.00     208    999.0    -0.6
 180   15:30   65.1    38    3.9   120      9.7   709.1    0.00     135    999.0    -0.6
 180   15:40   65.2    39    2.5   155      7.3   709.0    0.00     173    999.0    -0.6
 180   15:50   65.3    38    2.9   129      6.5   709.0    0.00     172    999.0    -0.6
 180   16:00   67.0    37    2.2   123      6.8   709.0    0.00     362    999.0    -0.6
 180   16:10   65.5    38    3.5   161     10.7   708.9    0.00      95    999.0    -0.6
 180   16:20   64.7    39    2.5   174      8.3   708.9    0.00     108    999.0    -0.6
 180   16:30   64.3    39    3.8   156     16.0   708.8    0.00      94    999.0    -0.6
 180   16:40   64.9    39    3.5   189     10.9   708.7    0.00     347    999.0    -0.5
 180   16:50   66.2    39    3.6   158     13.2   708.7    0.00     213    999.0    -0.6
 180   17:00   66.2    39    3.0   126      8.6   708.7    0.00     271    999.0    -0.6
 180   17:10   65.4    40    3.2   140      8.8   708.6    0.00     108    999.0    -0.6
 180   17:20   65.8    40    2.6   207      7.0   708.6    0.00     265    999.0    -0.5
 180   17:30   65.7    41    4.1   226     10.9   708.7    0.00     127    999.0    -0.6
 180   17:40   64.8    40    3.4   136      9.1   708.7    0.00      60    999.0    -0.6
 180   17:50   64.1    41    2.7   155      8.2   708.7    0.00      33    999.0    -0.6
 180   18:00   63.5    43    2.2   144      5.2   708.8    0.00      20    999.0    -0.6
 180   18:10   63.0    45    2.1   142      5.2   708.8    0.00      17    999.0    -0.6
 180   18:20   62.6    46    0.9   228      3.3   708.9    0.00      13    999.0    -0.6
 180   18:30   62.1    46    0.7   246      3.0   708.9    0.00      11    999.0    -0.6
 180   18:40   61.8    48    1.0   234      5.3   709.1    0.00      19    999.0    -0.6
 180   18:50   61.5    48    1.9   238      4.8   709.1    0.00      20    999.0    -0.6
 180   19:00   61.2    47    0.8   226      3.6   709.2    0.00      12    999.0    -0.6
 180   19:10   60.6    48    1.6   188      3.1   709.2    0.00       5    999.0    -0.7
 180   19:20   59.8    50    1.4   218      4.5   709.2    0.00       2    999.0    -0.7
 180   19:30   58.9    51    1.5   172      2.9   709.3    0.00       1    999.0    -0.7
 180   19:40   57.5    54    1.7   230      3.4   709.3    0.00       0    999.0    -0.7
 180   19:50   56.1    57    1.2   223      3.3   709.3    0.00       0    999.0    -0.6
 180   20:00   54.8    58    1.2   211      3.4   709.5    0.00       0    999.0    -0.7
 180   20:10   53.4    61    0.5   230      2.0   709.5    0.00       0    999.0    -0.6
 180   20:20   52.9    62    0.6   207      3.1   709.6    0.00       0    999.0    -0.6
 180   20:30   52.6    62    2.2   220      4.9   709.6    0.00       0    999.0    -0.7
 180   20:40   51.6    64    0.3   228      2.0   709.7    0.00       0    999.0    -0.7
 180   20:50   51.4    65    0.4   124      1.8   709.7    0.00       0    999.0    -0.7
 180   21:00   50.7    67    0.1   139      1.5   709.9    0.00       0    999.0    -0.6
 180   21:10   50.3    67    0.5   222      2.1   709.7    0.00       0    999.0    -0.7
 180   21:20   50.2    67    0.7   169      1.6   709.7    0.00       0    999.0    -0.7
 180   21:30   49.7    67    0.1   247      1.3   709.7    0.00       0    999.0    -0.7
 180   21:40   48.9    68    0.9   242      2.2   709.8    0.00       0    999.0    -0.6
 180   21:50   48.7    69    0.2   251      1.1   709.8    0.00       0    999.0    -0.6
 180   22:00   48.2    70    0.0   268      0.4   709.9    0.00       0    999.0    -0.6
 180   22:10   48.9    69    2.6   142      5.8   709.9    0.00       0    999.0    -0.6
 180   22:20   49.7    67    0.6   234      4.9   709.9    0.00       0    999.0    -0.6
 180   22:30   49.6    68    1.0   229      3.4   709.9    0.00       0    999.0    -0.7
 180   22:40   49.7    68    1.0   191      2.9   709.9    0.00       0    999.0    -0.6
 180   22:50   50.6    66    1.1   206      3.7   709.9    0.00       0    999.0    -0.6
 180   23:00   50.6    66    0.4   191      1.9   709.9    0.00       0    999.0    -0.7
 180   23:10   49.2    69    0.6   137      3.4   709.9    0.00       0    999.0    -0.8
 180   23:20   48.1    72    0.8   229      4.2   709.8    0.00       0    999.0    -0.6
 180   23:30   48.3    71    0.5   227      3.0   709.7    0.00       0    999.0    -0.6
 180   23:40   47.8    72    1.0   225      4.2   709.7    0.00       0    999.0    -0.7

Return to Crooked Creek Research Lab graphs page.


Western Regional Climate Center,wrcc@dri.edu